Time;durP1;ratioP1;P1;durP2;ratioP2;P2;SDS_P1;SDS_P2;PMS_P1;PMS_P2;Temp;Humidity;BMP_temperature;BMP_pressure;BME280_temperature;BME280_humidity;BME280_pressure;Samples;Min_cycle;Max_cycle;Signal;HPM_P1;HPM_P2
2023/01/23 00:01:44;;;;;;;;;47.50;39.50;;;;;10.85;61.49;99828.13;5055864;28;8879;-76
2023/01/23 00:04:14;;;;;;;;;40.50;36.25;;;;;10.66;62.50;99822.88;5073893;28;8843;-79
2023/01/23 00:06:43;;;;;;;;;39.75;38.00;;;;;10.67;62.22;99815.94;5039464;28;8875;-77
2023/01/23 00:09:12;;;;;;;;;44.50;36.50;;;;;10.47;63.39;99816.72;5073088;28;8868;-76
2023/01/23 00:11:41;;;;;;;;;50.75;36.00;;;;;10.64;62.90;99821.13;5072851;28;8886;-79
2023/01/23 00:14:10;;;;;;;;;43.75;37.00;;;;;10.56;62.93;99833.28;5054363;28;9017;-78
2023/01/23 00:16:39;;;;;;;;;45.25;40.00;;;;;10.49;63.40;99838.47;5073313;28;8858;-77
2023/01/23 00:19:10;;;;;;;;;44.50;38.50;;;;;10.14;64.50;99840.84;5055730;28;8893;-76
2023/01/23 00:21:40;;;;;;;;;42.00;35.00;;;;;10.47;64.39;99852.34;5039115;28;8937;-76
2023/01/23 00:24:11;;;;;;;;;37.00;35.00;;;;;10.20;64.40;99847.84;5055120;28;8976;-76
2023/01/23 00:26:41;;;;;;;;;42.25;32.75;;;;;10.50;63.57;99840.19;5038201;28;8877;-77
2023/01/23 00:29:10;;;;;;;;;42.75;38.75;;;;;10.51;63.46;99843.69;5054161;28;8863;-78
2023/01/23 00:31:39;;;;;;;;;41.00;37.50;;;;;10.74;62.65;99838.56;5054858;28;8864;-76
2023/01/23 00:34:15;;;;;;;;;40.75;35.50;;;;;10.88;62.29;99849.03;5020867;28;8998;-78
2023/01/23 00:36:45;;;;;;;;;37.25;36.75;;;;;10.96;62.45;99849.91;5055594;28;8890;-77
2023/01/23 00:39:17;;;;;;;;;41.25;36.00;;;;;11.02;61.97;99838.63;5055324;28;8848;-76
2023/01/23 00:41:47;;;;;;;;;44.50;36.00;;;;;11.12;61.55;99843.88;5055315;28;9616;-77
2023/01/23 00:44:16;;;;;;;;;42.00;38.50;;;;;11.23;61.62;99848.25;5004302;28;8863;-78
2023/01/23 00:46:45;;;;;;;;;50.00;40.25;;;;;11.31;61.00;99842.16;5054845;28;8867;-76
2023/01/23 00:49:16;;;;;;;;;52.00;43.50;;;;;11.39;61.07;99838.69;5054447;28;8874;-78
2023/01/23 00:51:46;;;;;;;;;58.50;45.25;;;;;11.26;60.73;99838.66;5038267;28;8867;-76
2023/01/23 00:54:15;;;;;;;;;46.75;42.25;;;;;11.35;60.71;99842.19;5038012;28;8851;-77
2023/01/23 00:56:44;;;;;;;;;53.00;40.75;;;;;11.46;60.85;99835.22;5072363;28;8934;-77
2023/01/23 00:59:13;;;;;;;;;57.50;44.50;;;;;11.57;60.83;99832.59;5036878;28;8874;-78
2023/01/23 01:01:42;;;;;;;;;56.50;43.25;;;;;11.66;60.14;99832.59;5071660;28;8976;-76
2023/01/23 01:04:11;;;;;;;;;57.25;43.25;;;;;11.71;59.93;99836.94;5053605;28;8856;-77
2023/01/23 01:06:40;;;;;;;;;46.50;40.25;;;;;11.78;60.40;99822.16;5028991;28;8833;-78
2023/01/23 01:09:10;;;;;;;;;56.00;43.00;;;;;11.82;59.75;99818.66;5029696;28;8979;-76
2023/01/23 01:11:39;;;;;;;;;47.50;41.25;;;;;11.74;60.32;99820.41;5013986;28;8872;-75
2023/01/23 01:14:08;;;;;;;;;55.50;42.25;;;;;11.61;59.86;99829.13;5029889;28;8844;-77
2023/01/23 01:16:37;;;;;;;;;50.75;41.25;;;;;11.52;59.85;99830.00;4990910;28;8864;-76
2023/01/23 01:19:06;;;;;;;;;49.00;41.25;;;;;11.25;60.69;99830.84;4931735;28;8856;-76
2023/01/23 01:21:34;;;;;;;;;42.25;37.75;;;;;11.22;60.91;99834.31;4925901;28;8872;-77
2023/01/23 01:24:04;;;;;;;;;49.75;42.50;;;;;11.06;61.23;99840.41;4973120;28;9650;-76
2023/01/23 01:26:33;;;;;;;;;53.50;41.75;;;;;11.12;61.36;99843.00;4989003;28;8845;-77
2023/01/23 01:29:03;;;;;;;;;35.00;27.25;;;;;11.10;61.54;99853.44;4973181;28;8859;-76
2023/01/23 01:31:31;;;;;;;;;48.75;41.50;;;;;11.00;61.60;99849.09;4989854;28;9701;-77
2023/01/23 01:34:00;;;;;;;;;44.25;38.25;;;;;11.11;60.74;99851.69;4973730;28;8889;-76
2023/01/23 01:36:29;;;;;;;;;43.00;39.75;;;;;11.04;61.38;99852.53;4972946;28;8856;-76
2023/01/23 01:38:58;;;;;;;;;46.50;40.00;;;;;10.99;61.68;99860.38;5027109;28;8853;-78
2023/01/23 01:41:27;;;;;;;;;32.00;30.75;;;;;11.05;61.52;99859.53;5012425;28;8884;-76
2023/01/23 01:43:58;;;;;;;;;47.00;39.25;;;;;11.04;61.64;99852.53;5012778;28;8845;-78
2023/01/23 01:46:29;;;;;;;;;42.00;38.25;;;;;11.15;60.87;99858.66;4979950;28;8886;-77
2023/01/23 01:49:09;;;;;;;;;41.20;37.60;;;;;11.09;61.16;99861.25;5053374;28;8864;-75
2023/01/23 01:51:44;;;;;;;;;41.75;35.75;;;;;10.98;61.45;99862.97;5037680;28;8870;-77
2023/01/23 01:54:21;;;;;;;;;45.00;38.00;;;;;11.08;60.88;99855.19;5036883;28;9991;-75
2023/01/23 01:56:55;;;;;;;;;37.80;35.80;;;;;11.11;61.23;99844.75;5069628;28;8990;-75
2023/01/23 01:59:30;;;;;;;;;32.75;30.75;;;;;11.20;60.69;99836.06;5053556;28;8932;-78
2023/01/23 02:02:04;;;;;;;;;35.50;32.25;;;;;11.04;60.88;99843.00;5072001;28;8893;-78
2023/01/23 02:04:36;;;;;;;;;46.00;38.00;;;;;10.89;61.26;99841.22;5052872;28;8872;-75
2023/01/23 02:07:09;;;;;;;;;36.00;32.00;;;;;10.81;61.55;99824.69;5053655;28;8855;-77
2023/01/23 02:09:38;;;;;;;;;37.80;35.20;;;;;10.81;61.12;99823.78;5034098;28;8862;-77
2023/01/23 02:12:07;;;;;;;;;33.20;30.80;;;;;10.53;62.18;99826.31;5033999;28;8862;-76
2023/01/23 02:14:38;;;;;;;;;39.80;34.80;;;;;10.43;62.69;99830.59;5052116;28;8850;-75
2023/01/23 02:17:07;;;;;;;;;30.00;28.40;;;;;10.45;62.63;99836.72;5032954;28;8976;-75
2023/01/23 02:19:43;;;;;;;;;31.00;28.25;;;;;10.52;62.15;99837.59;5016230;28;8870;-76
2023/01/23 02:22:23;;;;;;;;;31.25;29.75;;;;;10.22;62.91;99833.94;5049969;28;8853;-76
2023/01/23 02:25:03;;;;;;;;;31.00;30.00;;;;;9.99;63.89;99836.41;5050208;28;8865;-77
2023/01/23 02:27:33;;;;;;;;;40.50;36.50;;;;;9.98;64.11;99826.88;5033287;28;8878;-77
2023/01/23 02:30:04;;;;;;;;;37.50;34.00;;;;;9.86;64.83;99824.16;5032881;28;8873;-76
2023/01/23 02:32:35;;;;;;;;;38.50;35.25;;;;;9.92;64.62;99819.00;5015473;28;8866;-76
2023/01/23 02:35:10;;;;;;;;;34.20;30.80;;;;;10.00;64.64;99821.63;4991470;28;8867;-76
2023/01/23 02:37:43;;;;;;;;;41.00;34.75;;;;;9.82;65.51;99838.03;4985287;28;8856;-76
2023/01/23 02:40:13;;;;;;;;;35.75;35.00;;;;;9.80;65.86;99829.34;5027041;28;8852;-76
2023/01/23 02:42:46;;;;;;;;;34.40;29.80;;;;;9.74;66.74;99818.00;5011151;28;8914;-78
2023/01/23 02:45:17;;;;;;;;;22.60;20.80;;;;;9.66;66.51;99817.09;5011471;28;8863;-77
2023/01/23 02:47:46;;;;;;;;;27.00;25.00;;;;;9.73;66.87;99826.69;5011325;28;8864;-78
2023/01/23 02:50:16;;;;;;;;;37.00;31.75;;;;;9.71;67.01;99814.50;5011027;28;8860;-78
2023/01/23 02:52:46;;;;;;;;;33.20;28.80;;;;;9.74;67.15;99818.00;5026927;28;8861;-77
2023/01/23 02:55:15;;;;;;;;;39.50;32.00;;;;;9.50;68.07;99812.63;5028090;28;8895;-77
2023/01/23 02:57:45;;;;;;;;;38.00;34.20;;;;;9.65;67.53;99810.13;4978965;28;9048;-76
2023/01/23 03:00:18;;;;;;;;;33.80;31.60;;;;;9.71;67.42;99796.28;4994097;28;8856;-79
2023/01/23 03:02:50;;;;;;;;;32.75;28.75;;;;;9.49;68.32;99803.94;5010220;28;9735;-77
2023/01/23 03:05:20;;;;;;;;;40.40;33.40;;;;;9.33;68.92;99794.25;5010401;28;8864;-78
2023/01/23 03:07:52;;;;;;;;;23.40;22.80;;;;;9.51;69.02;99794.41;5010159;28;8860;-76
2023/01/23 03:10:24;;;;;;;;;32.00;30.00;;;;;9.45;69.20;99789.16;4994039;28;9010;-77
2023/01/23 03:12:57;;;;;;;;;33.20;32.20;;;;;9.57;68.37;99784.03;5033385;28;8840;-76
2023/01/23 03:15:25;;;;;;;;;31.60;26.80;;;;;9.55;68.55;99785.75;5051532;28;8862;-76
2023/01/23 03:17:54;;;;;;;;;33.00;28.50;;;;;9.47;68.45;99792.66;5052229;28;8844;-78
2023/01/23 03:20:25;;;;;;;;;39.20;31.60;;;;;9.41;69.02;99787.38;5034618;28;8852;-75
2023/01/23 03:22:54;;;;;;;;;37.50;33.25;;;;;9.33;69.37;99792.50;5051236;28;8848;-78
2023/01/23 03:25:23;;;;;;;;;34.60;27.00;;;;;9.28;69.90;99781.22;5051590;28;8844;-77
2023/01/23 03:27:55;;;;;;;;;39.50;34.00;;;;;9.28;70.07;99778.63;5051662;28;9766;-77
2023/01/23 03:30:24;;;;;;;;;30.00;27.00;;;;;9.21;70.00;99776.81;5035494;28;8897;-76
2023/01/23 03:32:53;;;;;;;;;36.00;34.75;;;;;9.19;70.40;99781.13;5051489;28;8864;-76
2023/01/23 03:35:22;;;;;;;;;36.25;34.25;;;;;9.27;70.77;99776.84;5034613;28;8840;-75
2023/01/23 03:37:53;;;;;;;;;34.20;30.40;;;;;9.30;70.69;99774.28;5068138;28;8868;-77
2023/01/23 03:43:15;;;;;;;;;38.40;30.00;;;;;9.30;70.57;99782.09;5068212;28;8855;-77
2023/01/23 03:45:49;;;;;;;;;36.00;32.75;;;;;9.22;71.40;99775.94;5035982;28;8875;-77
2023/01/23 03:48:18;;;;;;;;;28.50;22.75;;;;;9.39;71.37;99772.63;5052190;28;8855;-77
2023/01/23 03:50:47;;;;;;;;;37.00;34.25;;;;;9.41;71.22;99773.50;5034971;28;8840;-77
2023/01/23 03:53:18;;;;;;;;;35.80;31.80;;;;;9.44;70.95;99778.72;5051753;28;8879;-75
2023/01/23 03:55:47;;;;;;;;;27.75;24.75;;;;;9.63;70.53;99761.50;5069941;28;8953;-75
2023/01/23 03:58:22;;;;;;;;;29.00;21.40;;;;;9.57;70.91;99770.16;5034418;28;8964;-76
2023/01/23 04:00:51;;;;;;;;;30.60;27.20;;;;;9.44;71.32;99763.97;5000316;28;8894;-78
2023/01/23 04:03:21;;;;;;;;;33.60;26.20;;;;;9.54;71.69;99765.78;5034146;28;8863;-77
2023/01/23 04:05:49;;;;;;;;;31.20;28.60;;;;;9.71;70.89;99757.22;5032812;28;8847;-76
2023/01/23 04:08:18;;;;;;;;;30.60;26.80;;;;;9.84;70.54;99766.00;5067895;28;9604;-77
2023/01/23 04:10:47;;;;;;;;;29.80;24.40;;;;;10.01;70.05;99771.28;5050587;28;9706;-76
2023/01/23 04:13:17;;;;;;;;;27.40;22.60;;;;;10.09;69.81;99765.28;5049586;28;8864;-77
2023/01/23 04:15:48;;;;;;;;;21.80;20.20;;;;;10.13;69.74;99769.63;5067798;28;8863;-78
2023/01/23 04:18:16;;;;;;;;;25.80;21.40;;;;;10.14;69.93;99775.69;5016807;28;8867;-76
2023/01/23 04:20:45;;;;;;;;;20.40;20.20;;;;;10.11;69.97;99760.03;5068983;28;10051;-77
2023/01/23 04:23:14;;;;;;;;;27.20;21.20;;;;;10.44;68.96;99759.34;5017765;28;8890;-77
2023/01/23 04:25:43;;;;;;;;;21.80;18.20;;;;;10.27;69.43;99761.00;5067739;28;8856;-75
2023/01/23 04:28:15;;;;;;;;;20.40;19.60;;;;;10.30;69.29;99743.66;5052507;28;8851;-76
2023/01/23 04:30:45;;;;;;;;;23.60;20.60;;;;;10.27;69.18;99746.22;5037879;28;8887;-78
2023/01/23 04:33:22;;;;;;;;;21.00;17.40;;;;;10.14;69.85;99757.47;5053610;28;8874;-77
2023/01/23 04:35:54;;;;;;;;;20.20;17.20;;;;;10.05;70.13;99757.41;5070909;28;8859;-75
2023/01/23 04:38:23;;;;;;;;;14.80;14.80;;;;;10.12;69.98;99749.63;5036757;28;8868;-78
2023/01/23 04:40:53;;;;;;;;;15.80;13.40;;;;;10.00;70.83;99736.56;5054142;28;8840;-76
2023/01/23 04:43:22;;;;;;;;;14.00;14.00;;;;;10.16;70.06;99732.28;5070224;28;9083;-78
2023/01/23 04:45:53;;;;;;;;;15.00;14.80;;;;;10.09;70.50;99749.63;5070437;28;8851;-76
2023/01/23 04:48:44;;;;;;;;;13.20;10.80;;;;;9.96;70.52;99732.19;5037884;28;8871;-76
2023/01/23 04:51:17;;;;;;;;;9.80;9.20;;;;;10.07;70.63;99756.53;5054168;28;8898;-77
2023/01/23 04:53:46;;;;;;;;;12.80;11.40;;;;;9.94;71.15;99750.44;5055424;28;9757;-78
2023/01/23 04:56:15;;;;;;;;;16.60;14.00;;;;;9.99;70.66;99737.41;5032279;28;8866;-77
2023/01/23 04:58:44;;;;;;;;;9.20;9.20;;;;;10.24;69.92;99740.13;5032203;28;8970;-78
2023/01/23 05:01:21;;;;;;;;;8.60;8.60;;;;;10.08;70.61;99744.41;5033067;28;8861;-76
2023/01/23 05:03:57;;;;;;;;;8.80;8.80;;;;;10.17;70.25;99753.97;5016140;28;8862;-77
2023/01/23 05:06:26;;;;;;;;;9.00;9.00;;;;;10.17;69.79;99734.03;5032059;28;8873;-79
2023/01/23 05:08:57;;;;;;;;;16.60;11.60;;;;;10.26;69.75;99735.78;5015624;28;9764;-74
2023/01/23 05:11:35;;;;;;;;;7.00;6.80;;;;;10.27;69.76;99729.72;5031728;28;8896;-78
2023/01/23 05:14:04;;;;;;;;;9.20;8.00;;;;;10.30;69.24;99725.44;5032184;28;8964;-76
2023/01/23 05:16:34;;;;;;;;;7.80;7.80;;;;;10.40;69.40;99741.09;5031697;28;8842;-77
2023/01/23 05:19:20;;;;;;;;;8.00;5.80;;;;;10.42;68.77;99739.38;5048334;28;8878;-75
2023/01/23 05:21:49;;;;;;;;;6.00;6.00;;;;;10.27;69.25;99745.34;5031496;28;8893;-78
2023/01/23 05:24:21;;;;;;;;;5.80;5.80;;;;;10.40;69.51;99747.19;5031255;28;8906;-75
2023/01/23 05:26:50;;;;;;;;;10.80;8.60;;;;;10.39;68.73;99740.22;5036845;28;8932;-77
2023/01/23 05:29:20;;;;;;;;;7.20;7.00;;;;;10.41;68.87;99746.28;5052679;28;8894;-78
2023/01/23 05:32:10;;;;;;;;;9.60;8.60;;;;;10.39;68.94;99761.06;5052216;28;8879;-76
2023/01/23 05:34:40;;;;;;;;;7.60;7.60;;;;;10.56;67.83;99763.72;5019077;28;8859;-78
2023/01/23 05:37:24;;;;;;;;;6.00;6.00;;;;;10.63;67.65;99768.09;5052115;28;8839;-78
2023/01/23 05:40:00;;;;;;;;;6.80;6.40;;;;;10.67;67.70;99779.41;5036001;28;8864;-77
2023/01/23 05:42:50;;;;;;;;;7.80;6.80;;;;;10.73;67.32;99750.72;5051913;28;8939;-77
2023/01/23 05:45:37;;;;;;;;;6.00;5.20;;;;;10.66;67.06;99765.50;5068414;28;8986;-76
2023/01/23 05:48:12;;;;;;;;;8.80;8.20;;;;;10.61;67.22;99755.94;5052064;28;8877;-77
2023/01/23 05:50:41;;;;;;;;;7.60;6.40;;;;;10.65;67.14;99768.97;5070111;28;8852;-77
2023/01/23 05:53:11;;;;;;;;;6.60;6.00;;;;;10.57;66.90;99770.69;5018765;28;8906;-79
2023/01/23 05:55:41;;;;;;;;;7.20;6.40;;;;;10.60;67.24;99754.19;5036063;28;8856;-77
2023/01/23 05:58:14;;;;;;;;;10.20;7.20;;;;;10.73;66.62;99766.38;5052430;28;8918;-76
2023/01/23 06:01:02;;;;;;;;;11.00;10.00;;;;;10.67;66.42;99758.56;5032952;28;9099;-77
2023/01/23 06:03:50;;;;;;;;;10.00;7.80;;;;;10.78;66.11;99766.41;5049713;28;8842;-76
2023/01/23 06:06:42;;;;;;;;;9.80;8.20;;;;;10.53;66.71;99780.25;5030010;28;8861;-77
2023/01/23 06:09:12;;;;;;;;;6.80;6.40;;;;;10.49;66.60;99781.09;5032375;28;8877;-78
2023/01/23 06:11:41;;;;;;;;;9.60;7.00;;;;;10.44;66.40;99788.03;5050203;28;8866;-78
2023/01/23 06:14:10;;;;;;;;;8.80;8.40;;;;;10.54;66.23;99781.09;4998764;28;8884;-78
2023/01/23 06:16:39;;;;;;;;;7.20;7.00;;;;;10.41;66.93;99767.16;5042335;28;8890;-78
2023/01/23 06:19:09;;;;;;;;;6.00;6.00;;;;;10.46;66.68;99780.22;5035262;28;8898;-78
2023/01/23 06:21:38;;;;;;;;;4.20;4.20;;;;;10.52;66.42;99761.97;5069377;28;9009;-78
2023/01/23 06:24:09;;;;;;;;;8.20;7.00;;;;;10.44;66.47;99761.97;5035169;28;9570;-79
2023/01/23 06:26:38;;;;;;;;;5.80;5.80;;;;;10.56;66.42;99786.34;5051229;28;9724;-77
2023/01/23 06:29:07;;;;;;;;;6.80;6.40;;;;;10.64;65.50;99789.81;5051403;28;8855;-78
2023/01/23 06:31:36;;;;;;;;;6.60;5.00;;;;;10.66;65.31;99794.19;5001610;28;8887;-78
2023/01/23 06:34:06;;;;;;;;;11.40;9.00;;;;;10.58;65.67;99795.03;5017570;28;8852;-75
2023/01/23 06:36:41;;;;;;;;;11.00;8.80;;;;;10.54;66.03;99809.78;5051625;28;9099;-77
2023/01/23 06:39:14;;;;;;;;;8.80;8.80;;;;;10.85;65.12;99802.94;5051073;28;8849;-77
2023/01/23 06:41:43;;;;;;;;;8.40;6.80;;;;;10.67;64.84;99801.16;5034404;28;11073;-77
2023/01/23 06:44:18;;;;;;;;;7.00;6.40;;;;;10.66;65.24;99811.56;5026758;28;8863;-76
2023/01/23 06:46:47;;;;;;;;;5.60;5.60;;;;;10.76;65.18;99815.09;4993455;28;8987;-77
2023/01/23 06:49:17;;;;;;;;;7.00;7.00;;;;;10.73;64.77;99810.72;5026342;28;8860;-76
2023/01/23 06:51:45;;;;;;;;;7.80;6.60;;;;;10.71;64.78;99804.63;5009619;28;8868;-79
2023/01/23 06:54:16;;;;;;;;;11.00;10.00;;;;;10.76;64.52;99804.66;4993222;28;8943;-77
2023/01/23 06:56:45;;;;;;;;;7.80;7.80;;;;;10.80;64.24;99806.41;5009716;28;9012;-76
2023/01/23 06:59:15;;;;;;;;;10.00;6.20;;;;;10.78;64.30;99809.00;4993594;28;8860;-76
2023/01/23 07:01:44;;;;;;;;;8.20;5.20;;;;;10.63;64.86;99809.81;5010273;28;8865;-78
2023/01/23 07:04:19;;;;;;;;;6.60;6.60;;;;;10.76;63.85;99810.75;4979009;28;8876;-76
2023/01/23 07:06:50;;;;;;;;;8.00;8.00;;;;;10.86;63.82;99806.41;4993534;28;8844;-75
2023/01/23 07:09:22;;;;;;;;;2.00;2.00;;;;;11.07;63.24;99831.69;4993237;28;8860;-76
2023/01/23 07:12:06;;;;;;;;;7.40;7.40;;;;;11.02;63.20;99817.75;4993453;28;8879;-80
2023/01/23 07:14:35;;;;;;;;;8.20;8.20;;;;;11.04;63.42;99823.84;4997981;28;8876;-77
2023/01/23 07:17:04;;;;;;;;;8.80;7.00;;;;;10.99;63.59;99820.38;5050467;28;8871;-78
2023/01/23 07:19:33;;;;;;;;;5.00;5.00;;;;;10.70;64.12;99801.16;5049905;28;8871;-77
2023/01/23 07:22:05;;;;;;;;;8.00;8.00;;;;;10.72;63.90;99804.66;5033764;28;9044;-77
2023/01/23 07:24:36;;;;;;;;;7.20;7.20;;;;;10.94;62.94;99812.50;5068369;28;8921;-76
2023/01/23 07:27:04;;;;;;;;;11.40;10.60;;;;;10.84;62.70;99813.38;5068318;28;8840;-78
2023/01/23 07:29:33;;;;;;;;;10.00;7.60;;;;;10.79;62.91;99808.13;5050249;28;8995;-76
2023/01/23 07:32:02;;;;;;;;;5.60;5.60;;;;;10.79;62.49;99815.94;4989269;28;8887;-77
2023/01/23 07:34:31;;;;;;;;;5.00;5.00;;;;;10.82;62.77;99809.88;5005737;28;9058;-78
2023/01/23 07:36:59;;;;;;;;;6.00;6.00;;;;;10.77;62.55;99806.38;5005433;28;9632;-76
2023/01/23 07:39:28;;;;;;;;;7.40;6.60;;;;;10.82;62.21;99807.28;5005706;28;8863;-76
2023/01/23 07:41:58;;;;;;;;;3.40;3.40;;;;;10.71;61.80;99810.72;4957602;28;8879;-78
2023/01/23 07:44:29;;;;;;;;;7.80;5.80;;;;;10.73;62.36;99821.16;4989411;28;8967;-77
2023/01/23 07:46:58;;;;;;;;;7.00;6.80;;;;;10.85;61.52;99823.81;5005862;28;8902;-78
2023/01/23 07:49:27;;;;;;;;;6.80;6.80;;;;;10.69;61.80;99835.06;4989063;28;8883;-76
2023/01/23 07:51:55;;;;;;;;;9.80;5.80;;;;;10.64;62.26;99839.38;4972623;28;8847;-79
2023/01/23 07:54:24;;;;;;;;;9.20;8.40;;;;;10.70;62.02;99855.06;5005166;28;8882;-78
2023/01/23 07:56:53;;;;;;;;;5.80;5.80;;;;;10.48;62.41;99826.28;5005295;28;8871;-79
2023/01/23 07:59:23;;;;;;;;;5.80;5.60;;;;;10.67;62.08;99837.66;5005138;28;8887;-80
2023/01/23 08:01:52;;;;;;;;;7.60;6.60;;;;;10.61;62.13;99839.38;5005321;28;8875;-77
2023/01/23 08:04:21;;;;;;;;;6.00;6.00;;;;;10.64;62.12;99821.13;5031910;28;8903;-79
2023/01/23 08:06:50;;;;;;;;;6.60;6.60;;;;;10.78;61.19;99821.19;5000520;28;8993;-77
2023/01/23 08:09:19;;;;;;;;;9.00;9.00;;;;;10.76;61.32;99820.31;5033924;28;8853;-76
2023/01/23 08:11:47;;;;;;;;;6.80;6.80;;;;;10.66;61.69;99827.22;5051564;28;8850;-78
2023/01/23 08:14:16;;;;;;;;;6.80;6.40;;;;;10.63;61.82;99830.69;5051993;28;9647;-78
2023/01/23 08:16:48;;;;;;;;;8.20;6.20;;;;;10.48;61.77;99843.66;5051538;28;8943;-78
2023/01/23 08:19:18;;;;;;;;;8.80;7.80;;;;;10.75;61.82;99826.38;5051183;28;8846;-78
2023/01/23 08:21:47;;;;;;;;;7.60;7.60;;;;;10.61;61.17;99821.13;5051860;28;8896;-76
2023/01/23 08:24:16;;;;;;;;;7.40;7.40;;;;;10.69;61.29;99825.50;5033418;28;9590;-77
2023/01/23 08:26:44;;;;;;;;;10.60;8.20;;;;;10.65;61.07;99841.13;5031121;28;8895;-79
2023/01/23 08:29:13;;;;;;;;;13.80;13.20;;;;;10.61;60.88;99834.16;4997040;28;8868;-78
2023/01/23 08:31:42;;;;;;;;;11.00;9.00;;;;;10.65;61.35;99828.09;5013911;28;9003;-77
2023/01/23 08:34:12;;;;;;;;;8.60;7.60;;;;;10.86;60.17;99822.94;5013447;28;8888;-77
2023/01/23 08:36:41;;;;;;;;;7.40;6.20;;;;;10.80;60.72;99835.97;5013612;28;8868;-76
2023/01/23 08:39:10;;;;;;;;;7.80;6.20;;;;;10.87;60.51;99821.22;5013317;28;8962;-79
2023/01/23 08:41:39;;;;;;;;;5.60;5.60;;;;;10.88;59.91;99797.72;5050127;28;8866;-77
2023/01/23 08:44:08;;;;;;;;;5.40;5.40;;;;;10.80;60.32;99815.09;5008249;28;8920;-80
2023/01/23 08:46:37;;;;;;;;;6.00;6.00;;;;;10.84;60.67;99842.94;5008601;28;8874;-77
2023/01/23 08:49:06;;;;;;;;;9.80;7.60;;;;;10.74;60.68;99841.16;5008290;28;8873;-78
2023/01/23 08:51:38;;;;;;;;;6.00;6.00;;;;;10.77;60.29;99833.34;4991801;28;8862;-77
2023/01/23 08:54:07;;;;;;;;;7.20;6.40;;;;;10.84;60.38;99850.75;5008495;28;8866;-79
2023/01/23 08:56:36;;;;;;;;;7.00;6.20;;;;;10.87;60.64;99856.00;4995701;28;8876;-78
2023/01/23 08:59:05;;;;;;;;;11.60;8.20;;;;;10.96;60.15;99849.91;4979817;28;9701;-78
2023/01/23 09:01:34;;;;;;;;;11.40;10.20;;;;;11.02;60.50;99844.72;5028063;28;8886;-78
2023/01/23 09:04:03;;;;;;;;;7.40;7.00;;;;;10.99;59.63;99833.41;4995721;28;9042;-79
2023/01/23 09:06:31;;;;;;;;;7.40;7.20;;;;;11.06;59.79;99861.28;4995124;28;8960;-78
2023/01/23 09:09:02;;;;;;;;;8.40;7.40;;;;;11.17;59.28;99867.41;4988120;28;8848;-76
2023/01/23 09:11:30;;;;;;;;;8.00;7.60;;;;;11.28;59.03;99842.16;4988428;28;9130;-78
2023/01/23 09:14:00;;;;;;;;;9.80;9.00;;;;;11.14;59.21;99843.88;4988122;28;8977;-77
2023/01/23 09:16:48;;;;;;;;;7.20;7.20;;;;;11.24;58.93;99860.44;4968975;28;8881;-78
2023/01/23 09:19:17;;;;;;;;;8.00;7.00;;;;;11.19;58.90;99842.16;4968643;28;8909;-78
2023/01/23 09:21:46;;;;;;;;;11.00;7.00;;;;;11.32;58.99;99840.41;4946417;28;8955;-79
2023/01/23 09:24:16;;;;;;;;;6.40;6.40;;;;;11.36;58.48;99859.56;4972160;28;8885;-78
2023/01/23 09:26:45;;;;;;;;;7.00;7.00;;;;;11.32;58.90;99858.69;4956593;28;8842;-79
2023/01/23 09:29:14;;;;;;;;;7.20;6.00;;;;;11.26;58.81;99851.72;4988038;28;8873;-77
2023/01/23 09:31:43;;;;;;;;;6.00;6.00;;;;;11.21;58.19;99866.53;4968446;28;8872;-80
2023/01/23 09:34:12;;;;;;;;;12.00;12.00;;;;;11.32;58.02;99866.53;4968624;28;8880;-77
2023/01/23 09:36:44;;;;;;;;;8.40;6.80;;;;;11.50;57.77;99850.03;4968514;28;9058;-78
2023/01/23 09:39:13;;;;;;;;;9.20;7.80;;;;;11.47;57.35;99853.50;4936089;28;8849;-78
2023/01/23 09:41:44;;;;;;;;;7.60;7.60;;;;;11.33;57.42;99834.34;4952769;28;8922;-78
2023/01/23 09:44:19;;;;;;;;;6.00;3.20;;;;;11.19;57.78;99828.22;4952717;28;9013;-78
2023/01/23 09:46:51;;;;;;;;;5.80;5.80;;;;;11.24;57.58;99831.72;4972572;28;8878;-80
2023/01/23 09:49:26;;;;;;;;;6.60;6.20;;;;;11.12;58.15;99843.00;5047401;28;8985;-78
2023/01/23 09:52:01;;;;;;;;;7.40;6.00;;;;;11.21;58.17;99829.97;5030643;28;9087;-79
2023/01/23 09:54:37;;;;;;;;;10.60;5.80;;;;;11.32;57.98;99843.03;5030146;28;8893;-80
2023/01/23 09:57:14;;;;;;;;;6.60;5.00;;;;;11.29;58.64;99853.47;5046873;28;9009;-78
2023/01/23 09:59:49;;;;;;;;;6.60;6.40;;;;;11.30;57.37;99839.53;5030747;28;8869;-78
2023/01/23 10:02:29;;;;;;;;;11.80;10.20;;;;;11.56;57.53;99854.38;5037072;28;8851;-79
2023/01/23 10:05:01;;;;;;;;;9.80;7.60;;;;;11.51;56.88;99868.31;5051721;28;9613;-79
2023/01/23 10:07:49;;;;;;;;;6.60;6.60;;;;;11.51;56.92;99863.09;5051379;28;8836;-76
2023/01/23 10:10:48;;;;;;;;;9.40;7.60;;;;;11.60;56.70;99872.66;5069429;28;8859;-79
2023/01/23 10:13:22;;;;;;;;;8.40;6.40;;;;;11.77;56.49;99872.66;4990534;28;8875;-79
2023/01/23 10:16:23;;;;;;;;;10.20;7.80;;;;;11.92;55.39;99871.81;5006910;28;8871;-78
2023/01/23 10:19:02;;;;;;;;;6.60;6.00;;;;;11.88;55.46;99865.69;4894638;29;8885;-81
2023/01/23 10:21:39;;;;;;;;;3.60;2.20;;;;;11.73;55.09;99843.94;4894543;29;8869;-78
2023/01/23 10:24:24;;;;;;;;;4.60;4.20;;;;;11.76;55.26;99842.19;4878989;29;9003;-78
2023/01/23 10:26:58;;;;;;;;;7.40;6.00;;;;;11.74;55.59;99859.63;4894013;29;8861;-78
2023/01/23 10:29:34;;;;;;;;;6.60;5.80;;;;;11.70;55.52;99847.41;4910266;29;8988;-79
2023/01/23 10:32:05;;;;;;;;;6.40;5.80;;;;;11.80;55.16;99843.91;4878853;29;8873;-77
2023/01/23 10:34:43;;;;;;;;;8.00;6.20;;;;;11.84;55.49;99834.34;4894635;29;9419;-77
2023/01/23 10:37:20;;;;;;;;;5.00;5.00;;;;;11.66;55.50;99838.72;4910224;29;8963;-79
2023/01/23 10:39:54;;;;;;;;;7.00;7.00;;;;;11.88;55.40;99836.94;4910486;29;9047;-78
2023/01/23 10:42:26;;;;;;;;;4.20;4.00;;;;;11.83;54.50;99856.09;4910111;29;8853;-78
2023/01/23 10:44:56;;;;;;;;;3.40;3.40;;;;;11.80;54.82;99845.69;4894283;29;8995;-77
2023/01/23 10:47:31;;;;;;;;;8.00;6.40;;;;;11.96;54.67;99847.41;4878726;29;8869;-78
2023/01/23 10:50:02;;;;;;;;;5.60;5.60;;;;;11.81;55.13;99843.03;4930138;28;8867;-77
2023/01/23 10:52:34;;;;;;;;;2.20;2.20;;;;;11.87;54.42;99843.06;4950895;28;8910;-77
2023/01/23 10:55:05;;;;;;;;;5.00;3.00;;;;;11.84;54.96;99855.25;4979599;28;8879;-76
2023/01/23 10:57:47;;;;;;;;;4.80;4.80;;;;;11.69;54.66;99851.75;5028679;28;8930;-78
2023/01/23 11:00:27;;;;;;;;;6.60;6.00;;;;;11.76;55.03;99870.94;4979662;28;8979;-79
2023/01/23 11:02:56;;;;;;;;;7.60;7.60;;;;;11.66;55.25;99859.63;5028880;28;8862;-77
2023/01/23 11:05:37;;;;;;;;;5.60;5.60;;;;;11.64;54.93;99860.47;5029135;28;8992;-79
2023/01/23 11:08:25;;;;;;;;;7.00;7.00;;;;;11.61;55.62;99858.72;5028847;28;8874;-78
2023/01/23 11:11:11;;;;;;;;;7.40;7.00;;;;;11.55;56.09;99847.41;5045775;28;8901;-79
2023/01/23 11:13:43;;;;;;;;;6.00;6.00;;;;;11.48;55.77;99855.25;5029204;28;8916;-78
2023/01/23 11:16:16;;;;;;;;;11.00;8.20;;;;;11.50;56.07;99850.03;5045396;28;8901;-79
2023/01/23 11:18:52;;;;;;;;;5.40;5.40;;;;;11.39;55.71;99838.69;5045222;28;8893;-77
2023/01/23 11:21:22;;;;;;;;;7.40;5.60;;;;;11.30;56.18;99834.31;5045586;28;8992;-78
2023/01/23 11:24:08;;;;;;;;;4.80;4.80;;;;;11.28;55.34;99821.25;4996152;28;8861;-78
2023/01/23 11:26:38;;;;;;;;;6.40;5.40;;;;;11.11;56.16;99844.75;5029851;28;8866;-78
2023/01/23 11:29:23;;;;;;;;;7.80;6.20;;;;;11.28;55.98;99864.78;5059895;28;8852;-78
2023/01/23 11:31:58;;;;;;;;;5.40;5.40;;;;;11.05;56.08;99849.09;5005538;28;8871;-78
2023/01/23 11:34:33;;;;;;;;;7.60;7.60;;;;;11.12;56.04;99874.34;5006004;28;8998;-75
2023/01/23 11:37:13;;;;;;;;;7.00;6.60;;;;;10.92;56.79;99872.50;4973071;28;8909;-79
2023/01/23 11:39:50;;;;;;;;;5.60;5.60;;;;;10.78;56.71;99876.84;5005598;28;8933;-76
2023/01/23 11:42:19;;;;;;;;;3.40;3.40;;;;;10.86;56.57;99861.22;4989277;28;8937;-79
2023/01/23 11:44:50;;;;;;;;;3.80;3.80;;;;;10.92;55.94;99872.50;5005738;28;8973;-79
2023/01/23 11:47:49;;;;;;;;;2.80;2.80;;;;;10.85;56.22;99885.53;4966587;28;8863;-80
2023/01/23 11:50:36;;;;;;;;;5.00;5.00;;;;;10.98;56.04;99868.19;4874509;29;8875;-77
2023/01/23 11:53:27;;;;;;;;;3.00;3.00;;;;;10.89;55.37;99867.31;4890082;29;8895;-79
2023/01/23 11:56:25;;;;;;;;;5.00;3.00;;;;;10.95;55.55;99862.97;4889434;29;8875;-79
2023/01/23 11:59:24;;;;;;;;;3.40;3.40;;;;;10.86;55.98;99882.06;4876913;29;9014;-78
2023/01/23 12:02:20;;;;;;;;;6.20;6.20;;;;;10.99;56.23;99875.16;4856265;29;8884;-79